Latest Weather Observations for Lake Macquarie - Cooranbong

IDN60801

Issued at 4:03 pm EST Wednesday 8 July 2015 (issued every 30 minutes, with the page automatically refreshed every 10 minutes)

About weather observations | Map of weather stations | Latest weather observations for NSW | Other Formats
Station Details ID: 061412 Name: LAKE MACQUARIE AWS Lat: -33.09 Lon: 151.46 Height: 6.0 m
Data from the previous 72 hours. | See also: Recent months at Lake Macquarie - Cooranbong
Date/Time
EST
Temp
°C
App
Temp
°C
Dew
Point
Rel
Hum
%
Delta-T
°C
Wind Press
QNH
hPa
Press
MSL
hPa
Rain
since 9 am
mm
Dir
 
Spd
km/h
Gust
km/h
Spd
kts
Gust
kts
08/04:00pm 14.7 12.7 6.3 57 4.0 SSE 6 11 3 6 1027.7 1027.7 0.0
08/03:30pm 15.3 13.5 7.3 59 3.9 SSE 6 9 3 5 1027.6 1027.6 0.0
08/03:00pm 14.8 12.8 7.1 60 3.7 S 7 13 4 7 1027.5 1027.5 0.0
08/02:30pm 15.2 13.1 6.7 57 4.1 SSE 7 15 4 8 1027.4 1027.4 0.0
08/02:00pm 14.7 13.1 8.0 64 3.3 SE 6 9 3 5 1027.0 1027.0 0.0
08/01:30pm 15.2 13.3 7.5 60 3.8 SE 7 15 4 8 1027.0 1027.0 0.0
08/01:00pm 15.4 13.6 7.2 58 4.0 S 6 11 3 6 1027.4 1027.4 0.0
08/12:30pm 15.6 13.9 7.4 58 4.1 SSW 6 11 3 6 1027.6 1027.6 0.0
08/12:00pm 15.2 13.0 7.7 61 3.7 S 9 19 5 10 1027.9 1027.9 0.0
08/11:30am 14.9 12.7 7.9 63 3.5 S 9 20 5 11 1028.3 1028.3 0.0
08/11:00am 14.3 12.4 7.6 64 3.3 SSW 7 15 4 8 1028.7 1028.7 0.0
08/10:30am 14.1 12.5 8.1 67 3.0 SSW 6 11 3 6 1028.8 1028.8 0.0
08/10:00am 13.4 11.6 8.0 70 2.7 SW 7 13 4 7 1028.9 1028.9 0.0
08/09:30am 12.6 10.9 7.5 71 2.5 WSW 6 13 3 7 1028.8 1028.8 0.0
08/09:00am 11.4 9.4 7.1 75 2.0 SW 7 11 4 6 1028.4 1028.4 0.4
08/08:30am 10.0 8.4 8.8 92 0.6 WSW 7 15 4 8 1028.1 1028.1 0.4
08/08:00am 7.9 7.3 7.6 98 0.1 CALM 0 4 0 2 1028.0 1028.0 0.4
08/07:30am 5.3 4.1 4.7 96 0.3 CALM 0 2 0 1 1027.9 1027.9 0.4
08/07:00am 5.4 4.2 4.8 96 0.3 CALM 0 0 0 0 1027.6 1027.6 0.4
08/06:30am 5.5 4.4 4.9 96 0.3 CALM 0 4 0 2 1027.2 1027.2 0.4
08/06:00am 4.9 3.6 4.3 96 0.3 CALM 0 0 0 0 1027.0 1027.0 0.4
08/05:30am 4.2 2.8 3.5 95 0.3 CALM 0 4 0 2 1026.6 1026.6 0.2
08/05:00am 5.1 3.9 4.4 95 0.3 CALM 0 0 0 0 1026.4 1026.4 0.2
08/04:30am 4.9 3.6 4.2 95 0.3 CALM 0 0 0 0 1026.1 1026.1 0.2
08/04:00am 5.5 4.3 4.8 95 0.3 CALM 0 0 0 0 1025.9 1025.9 0.2
08/03:30am 5.8 4.7 5.1 95 0.3 CALM 0 0 0 0 1025.9 1025.9 0.2
08/03:00am 5.9 4.8 5.0 94 0.4 CALM 0 0 0 0 1025.8 1025.8 0.2
08/02:30am 6.5 5.5 5.5 93 0.4 CALM 0 0 0 0 1025.7 1025.7 0.2
08/02:00am 7.0 6.1 5.9 93 0.5 CALM 0 2 0 1 1025.6 1025.6 0.2
08/01:30am 7.2 6.2 5.8 91 0.6 CALM 0 0 0 0 1025.7 1025.7 0.2
08/01:00am 7.9 7.1 6.4 90 0.7 CALM 0 0 0 0 1025.6 1025.6 0.2
08/12:30am 8.3 7.5 6.4 88 0.9 CALM 0 0 0 0 1025.5 1025.5 0.2
08/12:00am 9.8 9.3 7.7 87 1.0 CALM 0 4 0 2 1025.5 1025.5 0.2
 
Date/Time
EST
Temp
°C
App
Temp
°C
Dew
Point
Rel
Hum
%
Delta-T
°C
Wind Press
QNH
hPa
Press
MSL
hPa
Rain
since 9 am
mm
Dir
 
Spd
km/h
Gust
km/h
Spd
kts
Gust
kts
07/11:30pm 10.3 9.1 8.1 86 1.1 WSW 4 6 2 3 1025.6 1025.6 0.2
07/11:00pm 10.5 9.4 8.3 86 1.1 WSW 4 7 2 4 1025.4 1025.4 0.2
07/10:30pm 9.8 9.3 7.9 88 0.9 CALM 0 6 0 3 1025.6 1025.6 0.2
07/10:00pm 9.2 8.6 7.5 89 0.8 CALM 0 6 0 3 1025.2 1025.2 0.2
07/09:30pm 9.9 9.4 7.7 86 1.1 CALM 0 0 0 0 1025.0 1025.0 0.2
07/09:00pm 10.5 9.4 8.3 86 1.1 WSW 4 9 2 5 1024.9 1024.9 0.2
07/08:30pm 9.5 9.0 7.9 90 0.8 CALM 0 2 0 1 1024.9 1024.9 0.2
07/08:00pm 9.8 9.1 8.4 91 0.7 WSW 2 4 1 2 1024.6 1024.6 0.2
07/07:30pm 9.7 9.3 8.3 91 0.7 CALM 0 6 0 3 1024.4 1024.4 0.2
07/07:00pm 9.9 9.5 8.3 90 0.8 CALM 0 2 0 1 1024.1 1024.1 0.2
07/06:30pm 10.7 9.7 9.0 89 0.8 WSW 4 6 2 3 1023.7 1023.7 0.2
07/06:00pm 11.0 10.8 8.9 87 1.0 CALM 0 4 0 2 1023.4 1023.4 0.2
07/05:30pm 11.2 10.6 9.1 87 1.0 SW 2 6 1 3 1023.1 1023.1 0.2
07/05:00pm 11.7 10.8 9.3 85 1.2 WSW 4 6 2 3 1022.6 1022.6 0.2
07/04:30pm 12.6 11.0 8.9 78 1.9 S 7 19 4 10 1022.4 1022.4 0.0
07/04:00pm 13.0 12.1 9.1 77 2.0 SE 4 6 2 3 1022.0 1022.0 0.0
07/03:30pm 13.2 11.5 8.3 72 2.4 SSE 7 15 4 8 1021.7 1021.7 0.0
07/03:00pm 14.9 13.2 7.5 61 3.6 S 6 13 3 7 1021.1 1021.1 0.0
07/02:30pm 14.2 12.3 7.5 64 3.3 SE 7 13 4 7 1020.9 1020.9 0.0
07/02:00pm 15.3 13.3 7.1 58 4.0 SSE 7 17 4 9 1020.6 1020.6 0.0
07/01:30pm 15.4 13.1 5.9 53 4.6 S 7 19 4 10 1020.3 1020.3 0.0
07/01:00pm 15.6 13.1 4.9 49 5.0 S 7 15 4 8 1020.2 1020.2 0.0
07/12:30pm 15.7 12.8 4.4 47 5.3 SSW 9 22 5 12 1020.1 1020.1 0.0
07/12:00pm 15.3 11.9 3.8 46 5.3 SSW 11 22 6 12 1020.1 1020.1 0.0
07/11:30am 15.8 12.9 4.8 48 5.2 SW 9 20 5 11 1020.2 1020.2 0.0
07/11:00am 15.5 12.9 4.3 47 5.2 SW 7 20 4 11 1020.6 1020.6 0.0
07/10:30am 14.8 11.4 3.9 48 5.0 SW 11 22 6 12 1020.6 1020.6 0.0
07/10:00am 14.7 11.9 5.0 52 4.5 SW 9 20 5 11 1020.5 1020.5 0.0
07/09:30am 13.9 11.4 4.5 53 4.3 WSW 7 13 4 7 1020.3 1020.3 0.0
07/09:00am 12.4 10.3 6.0 65 3.0 WSW 6 15 3 8 1019.9 1019.9 0.2
07/08:30am 8.1 7.2 6.1 87 0.9 CALM 0 0 0 0 1019.8 1019.8 0.2
07/08:00am 5.5 4.3 4.5 93 0.4 CALM 0 2 0 1 1019.7 1019.7 0.2
07/07:30am 3.0 1.3 1.8 92 0.5 CALM 0 0 0 0 1019.4 1019.4 0.2
07/07:00am 3.2 1.5 2.0 92 0.5 CALM 0 4 0 2 1018.8 1018.8 0.2
07/06:30am 3.5 1.5 2.5 93 0.4 ENE 2 6 1 3 1018.3 1018.3 0.2
07/06:00am 2.7 0.6 1.5 92 0.5 E 2 4 1 2 1017.8 1017.8 0.2
07/05:30am 2.8 1.0 1.5 91 0.5 CALM 0 0 0 0 1017.4 1017.4 0.2
07/05:00am 3.3 1.6 2.1 92 0.5 CALM 0 0 0 0 1017.1 1017.1 0.2
07/04:30am 3.4 1.7 2.1 91 0.5 CALM 0 0 0 0 1016.9 1016.9 0.2
07/04:00am 3.5 1.9 2.2 91 0.5 CALM 0 0 0 0 1017.0 1017.0 0.2
07/03:30am 3.7 2.1 2.2 90 0.6 CALM 0 0 0 0 1016.9 1016.9 0.2
07/03:00am 3.5 1.8 1.7 88 0.7 CALM 0 0 0 0 1016.8 1016.8 0.2
07/02:30am 4.2 2.6 2.4 88 0.7 CALM 0 0 0 0 1016.7 1016.7 0.2
07/02:00am 4.3 2.3 2.2 86 0.8 N 2 7 1 4 1016.6 1016.6 0.2
07/01:30am 4.5 2.1 2.0 84 1.0 N 4 6 2 3 1016.6 1016.6 0.0
07/01:00am 5.4 3.3 1.9 78 1.4 N 2 6 1 3 1016.8 1016.8 0.0
07/12:30am 7.6 5.0 4.2 79 1.5 N 7 11 4 6 1016.7 1016.7 0.0
07/12:00am 4.3 2.3 2.5 88 0.7 NNE 2 7 1 4 1016.8 1016.8 0.0
 
Date/Time
EST
Temp
°C
App
Temp
°C
Dew
Point
Rel
Hum
%
Delta-T
°C
Wind Press
QNH
hPa
Press
MSL
hPa
Rain
since 9 am
mm
Dir
 
Spd
km/h
Gust
km/h
Spd
kts
Gust
kts
06/11:30pm 4.0 1.7 2.5 90 0.6 N 4 7 2 4 1016.9 1016.9 0.0
06/11:00pm 3.8 2.2 2.3 90 0.6 CALM 0 0 0 0 1017.1 1017.1 0.0
06/10:30pm 4.0 2.4 2.7 91 0.5 CALM 0 0 0 0 1017.1 1017.1 0.0
06/10:00pm 4.4 2.5 3.1 91 0.5 NNE 2 4 1 2 1016.8 1016.8 0.0
06/09:30pm 4.5 2.6 3.0 90 0.6 NNE 2 6 1 3 1016.7 1016.7 0.0
06/09:00pm 4.8 2.3 3.5 91 0.5 NNW 6 9 3 5 1016.8 1016.8 0.0
06/08:30pm 4.4 2.6 3.2 92 0.5 N 2 6 1 3 1016.8 1016.8 0.0
06/08:00pm 5.3 4.0 4.0 91 0.5 CALM 0 0 0 0 1016.6 1016.6 0.0
06/07:30pm 5.8 4.5 4.0 88 0.8 CALM 0 0 0 0 1016.5 1016.5 0.0
06/07:00pm 6.5 5.3 4.7 88 0.8 CALM 0 0 0 0 1016.1 1016.1 0.0
06/06:30pm 7.2 6.1 4.9 85 1.0 CALM 0 0 0 0 1015.8 1015.8 0.0
06/06:00pm 7.9 6.7 4.8 81 1.4 CALM 0 4 0 2 1015.3 1015.3 0.0
06/05:30pm 9.1 8.0 4.9 75 1.9 CALM 0 4 0 2 1014.8 1014.8 0.0
06/05:00pm 12.1 10.5 4.3 59 3.5 NW 2 4 1 2 1014.4 1014.4 0.0
06/04:30pm 14.7 12.4 2.6 44 5.4 NW 4 6 2 3 1014.0 1014.0 0.0
06/04:00pm 16.9 13.9 0.5 33 7.1 WNW 6 11 3 6 1013.8 1013.8 0.0
06/03:30pm 17.3 14.3 1.7 35 7.0 WNW 7 11 4 6 1013.7 1013.7 0.0
06/03:00pm 17.2 13.7 1.2 34 7.1 NNW 9 15 5 8 1013.6 1013.6 0.0
06/02:30pm 17.1 13.6 1.1 34 7.0 NW 9 17 5 9 1013.5 1013.5 0.0
06/02:00pm 17.0 13.3 0.2 32 7.3 NNW 9 17 5 9 1013.4 1013.4 0.0
06/01:30pm 16.8 12.7 0.0 32 7.2 NW 11 22 6 12 1013.6 1013.6 0.0
06/01:00pm 16.7 12.7 0.4 33 7.0 WNW 11 24 6 13 1013.9 1013.9 0.0
06/12:30pm 16.2 12.1 -0.5 32 7.1 NW 11 19 6 10 1014.4 1014.4 0.0
06/12:00pm 15.8 11.5 -1.3 31 7.1 NW 11 20 6 11 1015.0 1015.0 0.0
06/11:30am 15.9 12.2 -0.3 33 6.9 NW 9 13 5 7 1015.5 1015.5 0.0
06/11:00am 15.4 11.8 0.8 37 6.3 NW 9 22 5 12 1016.0 1016.0 0.0
06/10:30am 14.4 11.2 0.6 39 5.9 NW 7 17 4 9 1016.2 1016.2 0.0
06/10:00am 13.6 10.5 1.6 44 5.2 NW 7 13 4 7 1016.6 1016.6 0.0
06/09:30am 10.6 9.9 8.4 86 1.1 W 2 4 1 2 1016.8 1016.8 0.0
06/09:00am 7.2 6.4 6.6 96 0.3 CALM 0 0 0 0 1016.8 1016.8 0.0
06/08:30am 3.8 2.4 3.4 97 0.2 CALM 0 0 0 0 1016.7 1016.7 0.0
06/08:00am 1.3 -0.6 0.7 96 0.2 CALM 0 0 0 0 1016.8 1016.8 0.0
06/07:30am -0.1 -2.2 -0.8 95 0.2 CALM 0 0 0 0 1016.9 1016.9 0.0
06/07:00am -0.1 -2.2 -0.8 95 0.2 CALM 0 0 0 0 1016.8 1016.8 0.0
06/06:30am 0.0 -2.1 -0.7 95 0.2 CALM 0 0 0 0 1016.7 1016.7 0.0
06/06:00am -0.1 -2.2 -0.8 95 0.2 CALM 0 0 0 0 1016.6 1016.6 0.0
06/05:30am 0.3 -1.7 -0.4 95 0.2 CALM 0 0 0 0 1016.3 1016.3 0.0
06/05:00am 0.4 -1.6 -0.3 95 0.2 CALM 0 0 0 0 1016.6 1016.6 0.0
06/04:30am 0.7 -1.3 0.0 95 0.3 CALM 0 0 0 0 1016.7 1016.7 0.0
06/04:00am 0.8 -1.2 0.1 95 0.3 CALM 0 0 0 0 1016.7 1016.7 0.0
06/03:30am 0.8 -1.2 0.1 95 0.3 CALM 0 0 0 0 1016.9 1016.9 0.0
06/03:00am 1.4 -0.5 0.7 95 0.3 CALM 0 0 0 0 1017.0 1017.0 0.0
06/02:30am 1.4 -0.5 0.7 95 0.3 CALM 0 0 0 0 1017.5 1017.5 0.0
06/02:00am 1.6 -0.2 0.9 95 0.3 CALM 0 0 0 0 1017.7 1017.7 0.0
06/01:30am 1.8 0.0 1.1 95 0.3 CALM 0 0 0 0 1018.1 1018.1 0.0
06/01:00am 2.4 0.7 1.7 95 0.3 CALM 0 0 0 0 1018.2 1018.2 0.0
06/12:30am 2.7 1.0 2.0 95 0.3 CALM 0 0 0 0 1018.3 1018.3 0.0
06/12:00am 2.8 1.1 1.9 94 0.3 CALM 0 0 0 0 1018.4 1018.4 0.0
 
Date/Time
EST
Temp
°C
App
Temp
°C
Dew
Point
Rel
Hum
%
Delta-T
°C
Wind Press
QNH
hPa
Press
MSL
hPa
Rain
since 9 am
mm
Dir
 
Spd
km/h
Gust
km/h
Spd
kts
Gust
kts
05/11:30pm 3.3 1.7 2.4 94 0.4 CALM 0 0 0 0 1018.5 1018.5 0.0
05/11:00pm 3.7 2.2 2.8 94 0.4 CALM 0 0 0 0 1018.6 1018.6 0.0
05/10:30pm 4.0 2.5 3.1 94 0.4 CALM 0 0 0 0 1018.6 1018.6 0.0
05/10:00pm 4.4 3.0 3.5 94 0.4 CALM 0 0 0 0 1018.4 1018.4 0.0
05/09:30pm 4.8 3.4 3.8 93 0.4 CALM 0 0 0 0 1018.5 1018.5 0.0
05/09:00pm 5.2 3.9 4.2 93 0.4 CALM 0 0 0 0 1018.7 1018.7 0.0
05/08:30pm 5.5 4.2 4.3 92 0.5 CALM 0 0 0 0 1018.7 1018.7 0.0
05/08:00pm 6.1 4.9 4.7 91 0.6 CALM 0 0 0 0 1018.9 1018.9 0.0
05/07:30pm 6.7 5.6 5.2 90 0.7 CALM 0 0 0 0 1018.9 1018.9 0.0
05/07:00pm 7.1 6.0 5.3 88 0.8 CALM 0 0 0 0 1018.7 1018.7 0.0
05/06:30pm 8.1 7.2 6.2 88 0.9 CALM 0 0 0 0 1018.5 1018.5 0.0
05/06:00pm 9.0 8.3 6.8 86 1.0 CALM 0 0 0 0 1018.5 1018.5 0.0
05/05:30pm 9.6 8.3 6.1 79 1.6 NNW 2 4 1 2 1018.3 1018.3 0.0
05/05:00pm 12.0 11.1 6.1 67 2.8 CALM 0 4 0 2 1018.4 1018.4 0.0
05/04:30pm 14.9 13.0 5.1 52 4.6 N 4 7 2 4 1018.1 1018.1 0.0

Other Formats:

Comma delimited format used in spreadsheet applications
http://www.bom.gov.au/fwo/IDN60801/IDN60801.95767.axf

JavaScript Object Notation format (JSON) in row-major order
http://www.bom.gov.au/fwo/IDN60801/IDN60801.95767.json